Time;durP1;ratioP1;P1;durP2;ratioP2;P2;SDS_P1;SDS_P2;PMS_P1;PMS_P2;Temp;Humidity;BMP_temperature;BMP_pressure;BME280_temperature;BME280_humidity;BME280_pressure;Samples;Min_cycle;Max_cycle;Signal;HPM_P1;HPM_P2
2023/12/14 00:02:06;;;;;;;6.35;2.47;;;6.80;85.40;;;;;;4937953;29;20039;-85
2023/12/14 00:04:31;;;;;;;7.50;1.92;;;6.80;85.30;;;;;;4951847;29;20106;-90
2023/12/14 00:06:58;;;;;;;5.15;2.20;;;6.80;85.20;;;;;;4940916;29;20038;-82
2023/12/14 00:09:24;;;;;;;4.40;1.88;;;6.80;85.30;;;;;;4957204;29;20028;-76
2023/12/14 00:11:51;;;;;;;4.60;2.00;;;6.70;85.30;;;;;;4938421;29;20034;-77
2023/12/14 00:14:16;;;;;;;2.83;1.33;;;6.70;85.40;;;;;;4956969;29;20023;-76
2023/12/14 00:16:42;;;;;;;4.07;1.85;;;6.70;85.50;;;;;;4940235;29;20475;-75
2023/12/14 00:19:07;;;;;;;4.05;1.58;;;6.80;85.60;;;;;;4939301;29;20035;-79
2023/12/14 00:21:33;;;;;;;3.30;1.92;;;6.80;85.60;;;;;;4957250;29;20123;-88
2023/12/14 00:23:58;;;;;;;4.20;1.90;;;6.80;85.50;;;;;;4941350;29;20031;-88
2023/12/14 00:26:24;;;;;;;6.30;2.10;;;6.90;85.50;;;;;;4941348;29;20065;-89
2023/12/14 00:28:50;;;;;;;2.90;1.80;;;6.90;85.40;;;;;;4940601;29;20473;-78
2023/12/14 00:31:15;;;;;;;3.38;1.70;;;6.90;85.40;;;;;;4957807;29;20031;-86
2023/12/14 00:33:41;;;;;;;3.83;1.75;;;6.90;85.40;;;;;;4940487;29;20027;-85
2023/12/14 00:36:07;;;;;;;4.40;1.90;;;6.90;85.40;;;;;;4940170;29;20425;-86
2023/12/14 00:38:32;;;;;;;6.35;1.90;;;6.90;85.30;;;;;;4939225;29;20026;-84
2023/12/14 00:40:58;;;;;;;4.38;1.88;;;6.80;85.60;;;;;;4939050;29;20035;-87
2023/12/14 00:43:23;;;;;;;2.80;1.63;;;6.80;85.40;;;;;;4940257;29;20042;-89
2023/12/14 00:45:49;;;;;;;3.13;1.55;;;6.70;85.50;;;;;;4939693;29;20042;-85
2023/12/14 00:48:14;;;;;;;3.35;1.50;;;6.70;85.80;;;;;;4941622;29;20095;-89
2023/12/14 00:50:40;;;;;;;6.78;1.75;;;6.70;85.60;;;;;;4943814;29;20033;-74
2023/12/14 00:53:07;;;;;;;3.40;1.23;;;6.70;85.70;;;;;;4969186;28;20016;-78
2023/12/14 00:55:32;;;;;;;3.67;1.35;;;6.70;85.70;;;;;;4963600;28;20019;-80
2023/12/14 00:57:58;;;;;;;3.28;1.10;;;6.70;85.60;;;;;;4962918;28;20026;-86
2023/12/14 01:00:24;;;;;;;3.03;1.27;;;6.80;85.60;;;;;;4954508;29;20023;-86
2023/12/14 01:02:49;;;;;;;2.10;1.00;;;6.90;85.60;;;;;;4946786;29;20043;-88
2023/12/14 01:05:15;;;;;;;5.03;1.27;;;6.90;85.40;;;;;;4942540;29;20052;-89
2023/12/14 01:07:40;;;;;;;2.80;1.38;;;6.90;85.30;;;;;;4940970;29;20035;-76
2023/12/14 01:10:07;;;;;;;2.15;1.20;;;6.90;85.20;;;;;;4957253;28;20576;-86
2023/12/14 01:12:32;;;;;;;3.10;1.40;;;6.90;85.20;;;;;;4950067;28;20058;-89
2023/12/14 01:14:58;;;;;;;3.47;1.20;;;6.90;85.20;;;;;;4958482;28;20078;-86
2023/12/14 01:17:23;;;;;;;2.83;1.13;;;7.00;85.20;;;;;;4958907;28;20031;-89
2023/12/14 01:19:50;;;;;;;1.85;1.30;;;6.90;85.20;;;;;;4959679;28;20023;-89
2023/12/14 01:22:16;;;;;;;3.25;1.13;;;7.00;85.10;;;;;;4959504;28;20499;-88
2023/12/14 01:24:41;;;;;;;1.75;1.20;;;6.90;85.10;;;;;;4942237;28;20034;-81
2023/12/14 01:27:09;;;;;;;3.03;0.98;;;6.90;85.20;;;;;;4957540;28;20031;-83
2023/12/14 01:29:34;;;;;;;2.63;1.35;;;7.00;85.20;;;;;;4958152;28;20027;-87
2023/12/14 01:32:00;;;;;;;3.92;1.38;;;6.90;85.20;;;;;;4968521;28;20026;-83
2023/12/14 01:34:26;;;;;;;4.70;1.80;;;6.90;85.30;;;;;;4962471;28;20023;-85
2023/12/14 01:36:52;;;;;;;5.15;1.83;;;6.80;85.40;;;;;;4959555;28;20074;-82
2023/12/14 01:39:17;;;;;;;3.80;1.42;;;6.80;85.40;;;;;;4959904;28;20034;-82
2023/12/14 01:41:43;;;;;;;1.98;0.95;;;6.80;85.40;;;;;;4959371;28;20047;-87
2023/12/14 01:44:08;;;;;;;3.72;1.10;;;6.80;85.30;;;;;;4959309;28;20030;-83
2023/12/14 01:46:34;;;;;;;2.78;1.30;;;6.90;85.30;;;;;;4958975;28;20364;-85
2023/12/14 01:48:59;;;;;;;3.38;1.27;;;6.90;85.20;;;;;;4958789;28;20023;-85
2023/12/14 01:51:25;;;;;;;2.35;1.17;;;6.90;85.20;;;;;;4958990;28;20035;-82
2023/12/14 01:53:51;;;;;;;1.77;1.25;;;6.90;85.00;;;;;;4958169;28;20030;-87
2023/12/14 01:56:16;;;;;;;2.83;1.17;;;6.90;85.00;;;;;;4960257;28;20031;-86
2023/12/14 01:58:42;;;;;;;1.67;1.00;;;6.90;85.00;;;;;;4961487;28;20030;-85
2023/12/14 02:01:15;;;;;;;5.05;1.05;;;6.90;84.90;;;;;;4960209;28;20042;-88
2023/12/14 02:03:52;;;;;;;2.53;1.38;;;6.90;85.00;;;;;;4968487;28;20043;-80
2023/12/14 02:06:18;;;;;;;1.75;1.00;;;6.90;84.90;;;;;;4972825;28;20110;-81
2023/12/14 02:08:43;;;;;;;1.77;1.00;;;6.90;84.90;;;;;;4961910;28;20050;-84
2023/12/14 02:11:10;;;;;;;2.47;1.30;;;6.90;85.00;;;;;;4975627;28;20027;-84
2023/12/14 02:13:36;;;;;;;2.08;1.15;;;6.90;85.00;;;;;;4966416;28;20023;-79
2023/12/14 02:16:01;;;;;;;2.00;1.30;;;6.90;85.00;;;;;;4958135;28;20378;-87
2023/12/14 02:18:27;;;;;;;3.22;1.50;;;7.00;85.10;;;;;;4958288;28;20031;-87
2023/12/14 02:20:52;;;;;;;3.88;1.50;;;6.90;85.00;;;;;;4957896;28;20034;-84
2023/12/14 02:23:18;;;;;;;2.58;1.30;;;6.90;85.00;;;;;;4957669;28;20038;-84
2023/12/14 02:25:43;;;;;;;5.22;1.50;;;6.90;85.10;;;;;;4958348;28;20472;-85
2023/12/14 02:28:09;;;;;;;2.65;1.50;;;6.90;85.20;;;;;;4958033;28;20035;-84
2023/12/14 02:30:35;;;;;;;2.58;1.33;;;6.90;85.10;;;;;;4958106;28;20109;-86
2023/12/14 02:33:01;;;;;;;2.00;1.30;;;7.00;85.10;;;;;;4959747;28;20026;-85
2023/12/14 02:35:26;;;;;;;1.58;1.23;;;7.00;84.90;;;;;;4944687;28;20031;-81
2023/12/14 02:37:52;;;;;;;2.20;1.17;;;7.00;84.80;;;;;;4961666;28;20029;-87
2023/12/14 02:40:17;;;;;;;2.85;1.30;;;7.00;84.50;;;;;;4961189;28;20053;-86
2023/12/14 02:42:43;;;;;;;2.25;1.10;;;7.00;84.50;;;;;;4961108;28;20097;-84
2023/12/14 02:45:10;;;;;;;1.95;1.02;;;7.00;84.40;;;;;;4961302;28;20062;-85
2023/12/14 02:47:36;;;;;;;3.03;1.58;;;7.00;84.10;;;;;;4961075;28;20030;-83
2023/12/14 02:50:02;;;;;;;3.30;1.27;;;6.90;84.20;;;;;;4960179;28;20117;-83
2023/12/14 02:52:27;;;;;;;1.55;1.20;;;7.00;84.30;;;;;;4960207;28;20058;-84
2023/12/14 02:54:53;;;;;;;2.75;1.10;;;6.90;84.40;;;;;;4960493;28;20078;-84
2023/12/14 02:57:18;;;;;;;1.70;1.05;;;7.00;84.50;;;;;;4960720;28;20050;-84
2023/12/14 02:59:44;;;;;;;3.28;1.30;;;7.00;84.60;;;;;;4960453;28;20054;-83
2023/12/14 03:02:10;;;;;;;2.08;1.08;;;6.90;84.60;;;;;;4960228;28;20130;-84
2023/12/14 03:04:38;;;;;;;2.40;1.42;;;6.90;84.70;;;;;;4960451;28;20078;-84
2023/12/14 03:07:04;;;;;;;2.05;1.45;;;6.90;84.90;;;;;;4960165;28;20038;-82
2023/12/14 03:09:29;;;;;;;2.35;1.63;;;6.90;84.90;;;;;;4959728;28;20015;-83
2023/12/14 03:11:55;;;;;;;3.47;2.47;;;6.90;86.00;;;;;;4959856;28;20121;-77
2023/12/14 03:14:23;;;;;;;3.70;2.88;;;6.90;85.40;;;;;;4943472;28;20121;-75
2023/12/14 03:16:48;;;;;;;4.25;3.00;;;6.80;85.30;;;;;;4959367;28;20038;-75
2023/12/14 03:19:15;;;;;;;3.72;2.50;;;6.80;85.30;;;;;;4959821;28;20035;-75
2023/12/14 03:21:41;;;;;;;3.53;2.25;;;6.90;85.20;;;;;;4959191;28;20126;-75
2023/12/14 03:24:07;;;;;;;2.75;1.70;;;6.90;85.40;;;;;;4960269;28;20106;-82
2023/12/14 03:26:33;;;;;;;2.25;1.48;;;6.90;85.20;;;;;;4959837;28;20073;-81
2023/12/14 03:28:58;;;;;;;2.97;1.95;;;6.90;85.20;;;;;;4960311;28;20502;-83
2023/12/14 03:31:24;;;;;;;2.55;1.90;;;6.80;85.20;;;;;;4962089;28;20030;-86
2023/12/14 03:33:49;;;;;;;2.55;1.90;;;6.80;85.10;;;;;;4964366;28;20034;-85
2023/12/14 03:36:15;;;;;;;3.20;2.00;;;6.80;85.10;;;;;;4967485;28;20099;-79
2023/12/14 03:38:42;;;;;;;2.30;1.73;;;6.80;85.10;;;;;;4973014;28;20117;-78
2023/12/14 03:41:07;;;;;;;3.55;1.80;;;6.80;85.20;;;;;;4955692;28;20043;-81
2023/12/14 03:43:33;;;;;;;2.90;1.77;;;6.80;85.20;;;;;;4973615;28;20030;-77
2023/12/14 03:45:58;;;;;;;2.47;1.58;;;6.80;85.10;;;;;;4993495;28;20039;-76
2023/12/14 03:48:24;;;;;;;5.75;1.67;;;6.80;85.20;;;;;;4971546;28;20050;-85
2023/12/14 03:50:49;;;;;;;2.53;1.42;;;6.80;85.30;;;;;;4963634;28;20434;-87
2023/12/14 03:53:15;;;;;;;1.70;1.08;;;6.80;85.30;;;;;;4961026;28;20384;-86
2023/12/14 03:55:40;;;;;;;2.28;1.27;;;6.80;85.40;;;;;;4960460;28;20038;-86
2023/12/14 03:58:06;;;;;;;1.70;1.20;;;6.80;85.30;;;;;;4960372;28;20114;-86
2023/12/14 04:00:32;;;;;;;2.03;1.60;;;6.80;85.40;;;;;;4959838;28;20365;-84
2023/12/14 04:02:58;;;;;;;3.08;1.48;;;6.80;86.20;;;;;;4959642;28;20026;-82
2023/12/14 04:05:23;;;;;;;2.60;1.70;;;6.70;85.40;;;;;;4959755;28;20465;-81
2023/12/14 04:07:50;;;;;;;3.42;2.00;;;6.70;85.50;;;;;;4976725;28;20102;-85
2023/12/14 04:10:26;;;;;;;2.40;1.70;;;6.80;85.60;;;;;;4960970;28;20026;-83
2023/12/14 04:12:51;;;;;;;;;;;6.70;85.50;;;;;;4961841;28;20097;-85
2023/12/14 04:15:17;;;;;;;3.70;1.40;;;6.70;85.60;;;;;;4961754;28;20351;-81
2023/12/14 04:17:43;;;;;;;2.13;1.73;;;6.70;85.80;;;;;;4975925;28;20027;-75
2023/12/14 04:20:09;;;;;;;4.25;1.65;;;6.70;85.70;;;;;;4976096;28;20070;-86
2023/12/14 04:22:35;;;;;;;2.28;1.45;;;6.70;85.70;;;;;;4960095;28;20037;-84
2023/12/14 04:25:00;;;;;;;3.95;1.92;;;6.70;85.80;;;;;;4961890;28;20027;-85
2023/12/14 04:27:28;;;;;;;4.57;1.60;;;6.80;86.70;;;;;;4964807;28;20030;-78
2023/12/14 04:29:55;;;;;;;2.15;1.30;;;6.80;85.90;;;;;;4983737;28;20019;-78
2023/12/14 04:32:21;;;;;;;2.45;1.23;;;6.80;85.90;;;;;;4969868;28;20022;-78
2023/12/14 04:34:47;;;;;;;2.30;1.02;;;6.80;85.90;;;;;;4972773;28;20029;-77
2023/12/14 04:37:12;;;;;;;1.58;0.90;;;6.90;86.00;;;;;;4956461;28;20042;-84
2023/12/14 04:39:39;;;;;;;3.13;1.40;;;6.80;85.90;;;;;;4980449;28;20152;-75
2023/12/14 04:42:05;;;;;;;1.35;1.10;;;6.90;86.00;;;;;;4959478;28;20038;-76
2023/12/14 04:44:30;;;;;;;3.38;1.02;;;6.90;85.90;;;;;;4961289;28;20015;-83
2023/12/14 04:46:56;;;;;;;2.40;1.02;;;6.90;85.90;;;;;;4965456;28;20061;-75
2023/12/14 04:49:21;;;;;;;1.33;1.23;;;6.90;85.90;;;;;;4959048;28;20023;-75
2023/12/14 04:51:48;;;;;;;1.42;1.33;;;6.90;85.90;;;;;;4959021;28;20030;-75
2023/12/14 04:54:14;;;;;;;3.65;1.70;;;6.90;85.90;;;;;;4958468;28;20089;-75
2023/12/14 04:56:41;;;;;;;3.70;1.63;;;6.90;85.90;;;;;;4960521;28;20019;-76
2023/12/14 04:59:07;;;;;;;4.45;2.33;;;6.90;85.80;;;;;;4943980;28;20027;-80
2023/12/14 05:01:32;;;;;;;3.88;1.80;;;6.90;85.80;;;;;;4962681;28;20053;-75
2023/12/14 05:03:58;;;;;;;4.22;2.30;;;6.90;85.80;;;;;;4970259;28;20457;-77
2023/12/14 05:06:23;;;;;;;2.67;1.65;;;6.90;85.70;;;;;;4974648;28;20507;-75
2023/12/14 05:08:49;;;;;;;2.17;1.67;;;6.90;85.50;;;;;;4961669;29;20023;-81
2023/12/14 05:11:15;;;;;;;2.53;1.65;;;6.90;84.60;;;;;;4955843;29;20035;-79
2023/12/14 05:13:41;;;;;;;2.83;1.30;;;6.80;84.20;;;;;;4952930;29;20019;-88
2023/12/14 05:16:07;;;;;;;3.80;1.55;;;6.90;84.40;;;;;;4950100;29;20059;-82
2023/12/14 05:18:32;;;;;;;1.67;1.25;;;6.90;84.60;;;;;;4944185;29;20113;-80
2023/12/14 05:20:59;;;;;;;1.65;1.20;;;6.80;84.50;;;;;;4942658;29;20051;-77
2023/12/14 05:23:24;;;;;;;2.47;1.60;;;6.80;84.70;;;;;;4942554;29;20413;-79
2023/12/14 05:25:50;;;;;;;2.53;1.58;;;6.80;84.70;;;;;;4942988;29;20035;-76
2023/12/14 05:28:16;;;;;;;1.60;1.40;;;6.80;83.80;;;;;;4949385;29;20027;-88
2023/12/14 05:30:43;;;;;;;3.58;1.65;;;6.70;83.80;;;;;;4957286;29;20058;-89
2023/12/14 05:33:08;;;;;;;3.15;1.92;;;6.70;83.60;;;;;;4953156;29;20023;-89
2023/12/14 05:35:34;;;;;;;4.25;1.92;;;6.70;83.40;;;;;;4955026;29;20031;-87
2023/12/14 05:38:00;;;;;;;5.03;2.83;;;6.70;83.00;;;;;;4956121;29;20027;-87
2023/12/14 05:40:25;;;;;;;4.60;2.60;;;6.70;82.80;;;;;;4954762;29;20055;-86
2023/12/14 05:42:51;;;;;;;2.90;1.80;;;6.70;83.00;;;;;;4954992;29;20031;-86
2023/12/14 05:45:18;;;;;;;1.95;1.48;;;6.70;83.10;;;;;;4958615;29;20425;-87
2023/12/14 05:47:44;;;;;;;2.85;1.70;;;6.70;83.00;;;;;;4956966;29;20051;-84
2023/12/14 05:50:10;;;;;;;2.53;1.48;;;6.80;82.90;;;;;;4958611;29;20055;-86
2023/12/14 05:52:36;;;;;;;3.08;1.83;;;6.70;82.80;;;;;;4958596;29;20019;-75
2023/12/14 05:55:02;;;;;;;5.40;1.90;;;6.70;82.80;;;;;;4958429;29;20035;-86
2023/12/14 05:57:27;;;;;;;4.72;2.35;;;6.70;83.10;;;;;;4958337;29;20034;-75
2023/12/14 05:59:53;;;;;;;4.22;1.90;;;6.80;83.00;;;;;;4958450;29;20020;-84
2023/12/14 06:02:19;;;;;;;2.58;1.60;;;6.80;82.60;;;;;;4946845;29;20081;-84
2023/12/14 06:04:44;;;;;;;2.90;1.83;;;6.70;82.80;;;;;;4946514;29;20133;-83
2023/12/14 06:07:10;;;;;;;2.65;1.52;;;6.60;83.10;;;;;;4946076;29;20557;-83
2023/12/14 06:09:35;;;;;;;4.50;1.83;;;6.50;83.70;;;;;;4946816;29;20114;-84
2023/12/14 06:12:04;;;;;;;3.60;2.30;;;6.50;83.80;;;;;;4963499;29;20098;-82
2023/12/14 06:14:30;;;;;;;4.35;3.42;;;6.60;84.10;;;;;;4965652;29;20031;-84
2023/12/14 06:16:56;;;;;;;8.38;5.65;;;6.60;83.80;;;;;;4970098;29;20428;-86
2023/12/14 06:19:22;;;;;;;4.38;2.70;;;6.60;84.00;;;;;;4969702;29;20543;-80
2023/12/14 06:21:48;;;;;;;7.68;4.22;;;6.60;83.60;;;;;;4952405;29;20413;-82
2023/12/14 06:24:15;;;;;;;6.55;3.35;;;6.70;83.90;;;;;;4953530;29;20124;-87
2023/12/14 06:26:46;;;;;;;3.65;2.33;;;6.60;83.80;;;;;;4951292;29;20468;-76
2023/12/14 06:29:12;;;;;;;4.32;2.60;;;6.60;84.00;;;;;;4942924;29;20458;-75
2023/12/14 06:31:38;;;;;;;3.55;2.40;;;6.60;84.00;;;;;;4947326;29;20043;-77
2023/12/14 06:34:07;;;;;;;6.80;2.58;;;6.60;84.90;;;;;;4945809;29;20019;-75
2023/12/14 06:36:34;;;;;;;3.38;2.10;;;6.50;84.90;;;;;;4947061;29;20484;-76
2023/12/14 06:39:00;;;;;;;2.88;1.90;;;6.60;83.70;;;;;;4946074;29;20028;-76
2023/12/14 06:41:28;;;;;;;1.98;1.45;;;6.50;83.50;;;;;;4958920;29;20507;-75
2023/12/14 06:43:54;;;;;;;3.00;1.60;;;6.50;83.70;;;;;;4941510;29;20440;-75
2023/12/14 06:46:20;;;;;;;1.75;1.27;;;6.40;83.70;;;;;;4958270;29;20023;-74
2023/12/14 06:48:46;;;;;;;2.13;1.13;;;6.40;83.50;;;;;;4942360;29;20031;-85
2023/12/14 06:51:12;;;;;;;3.38;1.33;;;6.40;84.10;;;;;;4945132;29;20037;-77
2023/12/14 06:53:41;;;;;;;4.63;1.13;;;6.50;82.80;;;;;;4942956;29;20031;-75
2023/12/14 06:56:10;;;;;;;2.05;1.58;;;6.50;82.60;;;;;;4940587;29;20062;-80
2023/12/14 06:58:43;;;;;;;2.70;1.63;;;6.50;82.80;;;;;;4941823;29;20058;-76
2023/12/14 07:01:14;;;;;;;4.18;2.45;;;6.50;82.90;;;;;;4957745;29;20180;-83
2023/12/14 07:03:46;;;;;;;5.75;3.22;;;6.50;82.70;;;;;;4941166;29;20035;-79
2023/12/14 07:06:13;;;;;;;2.42;1.63;;;6.50;83.10;;;;;;4941342;29;20023;-81
2023/12/14 07:08:40;;;;;;;1.42;1.30;;;6.50;82.90;;;;;;4944376;29;20043;-76
2023/12/14 07:11:06;;;;;;;4.20;2.40;;;6.50;83.10;;;;;;4941583;29;20035;-75
2023/12/14 07:13:32;;;;;;;7.28;4.30;;;6.50;83.20;;;;;;4940560;29;20020;-74
2023/12/14 07:15:59;;;;;;;3.42;1.80;;;6.50;83.10;;;;;;4924083;29;20042;-74
2023/12/14 07:18:25;;;;;;;2.50;1.40;;;6.50;83.50;;;;;;4957078;29;20114;-74
2023/12/14 07:20:50;;;;;;;2.60;1.80;;;6.50;83.40;;;;;;4923474;29;20171;-77
2023/12/14 07:23:16;;;;;;;3.97;1.85;;;6.50;83.40;;;;;;4940460;29;20118;-80
2023/12/14 07:25:41;;;;;;;3.30;1.45;;;6.50;83.50;;;;;;4939959;29;20023;-75
2023/12/14 07:28:07;;;;;;;1.10;1.00;;;6.50;83.60;;;;;;4939730;29;20038;-75
2023/12/14 07:30:32;;;;;;;5.13;1.13;;;6.50;83.40;;;;;;4939942;29;20028;-73
2023/12/14 07:32:58;;;;;;;3.53;1.20;;;6.60;83.50;;;;;;4957668;29;20091;-74
2023/12/14 07:35:24;;;;;;;1.80;1.60;;;6.60;83.50;;;;;;4941664;29;20025;-76
2023/12/14 07:37:49;;;;;;;4.18;2.13;;;6.60;83.70;;;;;;4942948;29;20063;-74
2023/12/14 07:40:15;;;;;;;2.20;2.00;;;6.60;84.00;;;;;;4940671;29;20480;-74
2023/12/14 07:42:41;;;;;;;3.70;2.38;;;6.60;84.20;;;;;;4957863;28;20563;-76
2023/12/14 07:45:09;;;;;;;3.72;2.33;;;6.60;84.60;;;;;;4959270;29;20035;-79
2023/12/14 07:47:34;;;;;;;2.63;2.10;;;6.70;84.70;;;;;;4961354;29;20039;-76
2023/12/14 07:50:02;;;;;;;5.45;2.30;;;6.70;84.80;;;;;;4961142;28;20400;-83
2023/12/14 07:52:27;;;;;;;2.72;2.10;;;6.70;84.80;;;;;;4942609;29;20480;-86
2023/12/14 07:54:53;;;;;;;2.80;2.22;;;6.70;85.00;;;;;;4943661;29;20158;-87
2023/12/14 07:57:18;;;;;;;3.70;2.42;;;6.70;85.10;;;;;;4964219;28;20031;-79
2023/12/14 07:59:45;;;;;;;2.63;2.35;;;6.70;85.40;;;;;;4967769;28;20027;-89
2023/12/14 08:02:10;;;;;;;6.07;3.17;;;6.80;85.40;;;;;;4944544;29;20031;-85
2023/12/14 08:04:36;;;;;;;5.25;3.38;;;6.80;85.50;;;;;;4967938;28;20075;-87
2023/12/14 08:07:02;;;;;;;3.72;3.33;;;6.90;85.90;;;;;;4960369;29;20019;-81
2023/12/14 08:09:28;;;;;;;14.35;10.65;;;6.90;85.80;;;;;;4971507;29;20023;-75
2023/12/14 08:11:53;;;;;;;9.93;6.85;;;6.90;85.80;;;;;;4944057;29;20049;-91
2023/12/14 08:14:19;;;;;;;8.45;5.90;;;6.90;85.80;;;;;;4941978;29;20034;-82
2023/12/14 08:16:44;;;;;;;6.43;4.38;;;6.90;85.80;;;;;;4926164;29;20496;-91
2023/12/14 08:19:10;;;;;;;5.45;2.90;;;6.90;85.80;;;;;;4941529;29;20094;-89
2023/12/14 08:21:36;;;;;;;3.88;2.80;;;7.00;85.90;;;;;;4947768;29;20431;-78
2023/12/14 08:24:02;;;;;;;14.45;4.28;;;7.00;85.70;;;;;;4963147;28;20066;-78
2023/12/14 08:26:31;;;;;;;4.65;3.05;;;7.30;93.00;;;;;;4959236;29;20067;-82
2023/12/14 08:28:58;;;;;;;3.05;2.28;;;7.60;94.50;;;;;;4940922;29;20384;-85
2023/12/14 08:31:25;;;;;;;2.80;2.30;;;7.60;91.20;;;;;;4948492;29;20038;-85
2023/12/14 08:33:52;;;;;;;3.05;2.60;;;7.70;89.30;;;;;;4929346;29;20027;-83
2023/12/14 08:36:17;;;;;;;3.67;2.50;;;7.80;87.40;;;;;;4942504;29;20886;-83
2023/12/14 08:41:53;;;;;;;4.47;3.42;;;8.20;84.20;;;;;;5759244;23;20091;-84
2023/12/14 08:44:18;;;;;;;5.15;3.05;;;8.30;82.80;;;;;;4948260;23;20114;-84
2023/12/14 08:46:45;;;;;;;4.85;4.03;;;8.40;82.30;;;;;;5070272;23;20175;-84
2023/12/14 08:49:12;;;;;;;5.05;3.40;;;8.40;81.60;;;;;;4946222;29;20031;-82
2023/12/14 08:51:38;;;;;;;5.28;2.90;;;8.40;81.80;;;;;;4970979;23;20027;-85
2023/12/14 08:54:05;;;;;;;5.45;3.58;;;8.30;81.70;;;;;;4946602;29;20058;-83
2023/12/14 08:56:30;;;;;;;7.32;5.22;;;8.20;81.00;;;;;;4942717;29;20042;-85
2023/12/14 08:59:00;;;;;;;6.50;4.57;;;8.20;81.10;;;;;;4958552;29;20020;-83
2023/12/14 09:01:25;;;;;;;5.18;4.10;;;8.20;81.00;;;;;;4942086;29;20035;-84
2023/12/14 09:03:51;;;;;;;3.80;2.90;;;8.00;81.30;;;;;;4971411;29;20018;-83
2023/12/14 09:06:24;;;;;;;3.00;2.05;;;8.10;82.20;;;;;;4957556;29;20107;-89
2023/12/14 09:08:49;;;;;;;3.75;2.30;;;8.20;80.80;;;;;;4961925;29;20116;-87
2023/12/14 09:11:16;;;;;;;3.63;2.60;;;8.00;80.10;;;;;;4955264;28;20043;-82
2023/12/14 09:13:42;;;;;;;8.32;3.63;;;7.80;81.20;;;;;;4964705;28;20028;-76
2023/12/14 09:16:08;;;;;;;5.82;2.70;;;7.70;81.60;;;;;;4966309;29;20035;-76
2023/12/14 09:18:34;;;;;;;7.60;4.75;;;7.60;81.80;;;;;;4963697;28;20033;-76
2023/12/14 09:21:00;;;;;;;7.40;4.85;;;7.60;82.20;;;;;;4972455;28;20051;-76
2023/12/14 09:23:25;;;;;;;13.15;6.57;;;7.40;82.50;;;;;;4949762;29;20031;-76
2023/12/14 09:25:51;;;;;;;7.80;3.83;;;7.30;83.40;;;;;;4969940;29;20034;-77
2023/12/14 09:28:17;;;;;;;4.38;2.72;;;7.30;83.80;;;;;;4969420;28;20552;-84
2023/12/14 09:30:42;;;;;;;2.83;1.92;;;7.20;84.00;;;;;;4959265;29;20033;-79
2023/12/14 09:33:08;;;;;;;4.93;1.88;;;7.20;84.20;;;;;;4958332;28;20023;-78
2023/12/14 09:35:38;;;;;;;2.40;1.30;;;7.20;84.60;;;;;;4957374;28;20051;-85
2023/12/14 09:38:06;;;;;;;4.80;1.55;;;7.10;85.00;;;;;;4939689;29;20045;-82
2023/12/14 09:40:31;;;;;;;2.60;1.33;;;7.10;85.00;;;;;;4956268;29;20038;-79
2023/12/14 09:42:57;;;;;;;7.80;3.85;;;7.10;84.70;;;;;;4958976;28;20106;-79
2023/12/14 09:45:27;;;;;;;5.28;2.00;;;7.10;85.10;;;;;;4946298;29;20086;-81
2023/12/14 09:47:53;;;;;;;3.53;1.75;;;7.10;85.40;;;;;;4962688;29;20031;-78
2023/12/14 09:50:21;;;;;;;2.95;1.45;;;7.00;84.90;;;;;;4962207;28;20015;-75
2023/12/14 09:52:48;;;;;;;2.22;1.48;;;7.00;85.20;;;;;;4961251;28;20050;-76
2023/12/14 09:55:15;;;;;;;2.53;1.90;;;7.00;85.40;;;;;;4945894;29;20026;-78
2023/12/14 09:57:40;;;;;;;3.33;1.42;;;6.90;85.90;;;;;;4966583;29;20083;-77
2023/12/14 10:00:11;;;;;;;3.78;1.15;;;6.90;86.20;;;;;;4963880;29;20019;-75
2023/12/14 10:02:37;;;;;;;1.80;1.30;;;7.00;85.90;;;;;;4963066;29;20031;-78
2023/12/14 10:05:03;;;;;;;1.13;1.00;;;7.00;85.40;;;;;;4961985;28;20027;-77
2023/12/14 10:07:30;;;;;;;1.98;1.15;;;6.90;86.30;;;;;;4960642;29;20031;-79
2023/12/14 10:10:13;;;;;;;2.22;1.20;;;6.80;86.70;;;;;;4960504;28;20400;-76
2023/12/14 10:12:52;;;;;;;1.05;0.80;;;6.80;86.90;;;;;;4960612;29;20024;-76
2023/12/14 10:15:18;;;;;;;1.75;1.30;;;6.80;86.70;;;;;;4960968;28;20027;-76
2023/12/14 10:17:44;;;;;;;2.05;1.33;;;6.90;86.20;;;;;;4960906;28;20053;-81
2023/12/14 10:20:09;;;;;;;0.98;0.80;;;7.00;86.40;;;;;;4960592;28;20031;-76
2023/12/14 10:22:37;;;;;;;2.88;1.25;;;7.10;85.80;;;;;;4943386;29;20500;-75
2023/12/14 10:25:03;;;;;;;1.20;1.00;;;7.10;85.40;;;;;;4960780;28;20102;-79
2023/12/14 10:27:31;;;;;;;4.60;2.42;;;7.20;85.80;;;;;;4943280;29;20120;-76
2023/12/14 10:29:57;;;;;;;1.40;1.00;;;7.20;85.50;;;;;;4943468;28;20171;-77
2023/12/14 10:32:24;;;;;;;1.40;0.63;;;7.20;84.80;;;;;;4962642;28;20482;-76
2023/12/14 10:34:49;;;;;;;1.10;1.00;;;7.20;85.00;;;;;;4979721;28;20161;-77
2023/12/14 10:37:17;;;;;;;2.35;1.38;;;7.20;85.00;;;;;;4979754;28;20089;-76
2023/12/14 10:39:43;;;;;;;2.67;1.15;;;7.20;85.40;;;;;;4961921;28;20026;-78
2023/12/14 10:42:10;;;;;;;1.33;1.17;;;7.20;86.30;;;;;;4979928;28;20104;-76
2023/12/14 10:44:37;;;;;;;2.08;0.88;;;7.10;87.10;;;;;;4961996;28;20041;-79
2023/12/14 10:47:06;;;;;;;0.65;0.60;;;6.90;84.30;;;;;;4962216;28;20027;-77
2023/12/14 10:49:34;;;;;;;2.65;1.45;;;6.80;81.60;;;;;;4979016;28;20019;-77
2023/12/14 10:52:02;;;;;;;2.13;1.70;;;6.70;81.60;;;;;;4943306;28;1068857;-76
2023/12/14 10:54:30;;;;;;;1.52;1.40;;;6.60;83.00;;;;;;4979473;28;20045;-76
2023/12/14 10:56:56;;;;;;;4.13;1.95;;;6.60;83.70;;;;;;4961974;28;20046;-79
2023/12/14 10:59:24;;;;;;;3.15;2.22;;;6.60;84.30;;;;;;4977430;28;20026;-76
2023/12/14 11:01:53;;;;;;;5.70;3.50;;;6.60;84.70;;;;;;4977462;28;20097;-76
2023/12/14 11:04:21;;;;;;;4.60;2.30;;;6.70;85.00;;;;;;4977531;28;20015;-75
2023/12/14 11:06:48;;;;;;;4.35;1.80;;;6.70;85.10;;;;;;4977195;28;20157;-77
2023/12/14 11:09:18;;;;;;;3.45;1.70;;;6.70;85.50;;;;;;4978572;28;20019;-74
2023/12/14 11:11:53;;;;;;;2.53;1.58;;;6.70;86.20;;;;;;4977608;28;20031;-76
2023/12/14 11:14:19;;;;;;;6.30;2.00;;;6.80;86.30;;;;;;4977258;28;20031;-76
2023/12/14 11:16:46;;;;;;;5.13;2.08;;;6.80;86.30;;;;;;4978540;28;20033;-75
2023/12/14 11:19:21;;;;;;;2.13;1.48;;;6.80;86.60;;;;;;4977566;28;20023;-77
2023/12/14 11:21:47;;;;;;;3.15;1.50;;;6.90;86.40;;;;;;4976958;28;20027;-76
2023/12/14 11:24:13;;;;;;;3.42;1.55;;;6.90;86.20;;;;;;4977546;28;20031;-76
2023/12/14 11:26:40;;;;;;;2.58;1.58;;;7.00;86.10;;;;;;4976892;28;20113;-75
2023/12/14 11:29:06;;;;;;;2.88;2.08;;;7.10;86.00;;;;;;4959382;28;20029;-75
2023/12/14 11:31:32;;;;;;;2.72;2.33;;;7.20;85.90;;;;;;4976081;28;20514;-75
2023/12/14 11:34:00;;;;;;;5.32;3.28;;;7.20;85.70;;;;;;4976374;28;20031;-78
2023/12/14 11:36:26;;;;;;;7.43;6.07;;;7.30;85.20;;;;;;4976912;28;20027;-79
2023/12/14 11:38:54;;;;;;;9.98;8.30;;;7.40;84.70;;;;;;4976168;28;20079;-74
2023/12/14 11:41:25;;;;;;;12.23;8.98;;;7.60;84.90;;;;;;4976483;28;20031;-77
2023/12/14 11:43:51;;;;;;;8.15;6.00;;;7.80;84.50;;;;;;4976151;28;20031;-76
2023/12/14 11:46:17;;;;;;;5.18;3.72;;;8.00;84.00;;;;;;4975751;28;20037;-76
2023/12/14 11:48:48;;;;;;;4.22;2.80;;;8.00;83.60;;;;;;4975696;28;20043;-76
2023/12/14 11:51:15;;;;;;;2.70;1.77;;;8.10;83.40;;;;;;4975544;28;20023;-78
2023/12/14 11:53:40;;;;;;;2.75;1.77;;;8.20;82.70;;;;;;4976046;28;20097;-75
2023/12/14 11:56:06;;;;;;;3.60;1.95;;;8.30;82.50;;;;;;4975464;28;20075;-77
2023/12/14 11:58:35;;;;;;;29.27;20.17;;;8.30;82.10;;;;;;4958401;28;20484;-77
2023/12/14 12:01:21;;;;;;;5.53;2.95;;;8.30;82.20;;;;;;4975202;28;20039;-75
2023/12/14 12:03:47;;;;;;;2.45;0.77;;;8.30;80.10;;;;;;4975830;28;20033;-78
2023/12/14 12:06:30;;;;;;;0.47;0.47;;;8.20;78.70;;;;;;4962375;28;20397;-77
2023/12/14 12:08:55;;;;;;;1.42;0.80;;;8.00;78.70;;;;;;4978267;28;20022;-80
2023/12/14 12:11:24;;;;;;;0.93;0.68;;;7.90;79.70;;;;;;4980531;28;20033;-76
2023/12/14 12:13:51;;;;;;;2.08;0.60;;;7.80;79.90;;;;;;4974445;28;20022;-77
2023/12/14 12:16:17;;;;;;;2.00;0.70;;;7.70;80.50;;;;;;4992919;28;20042;-80
2023/12/14 12:18:42;;;;;;;1.50;0.70;;;7.70;81.70;;;;;;4984807;28;20023;-83
2023/12/14 12:21:09;;;;;;;1.23;0.82;;;7.40;82.10;;;;;;4977932;28;20038;-77
2023/12/14 12:23:45;;;;;;;3.22;1.20;;;7.30;83.00;;;;;;4975861;28;20118;-81
2023/12/14 12:26:10;;;;;;;1.75;1.15;;;7.30;83.40;;;;;;4958513;28;20388;-79
2023/12/14 12:28:36;;;;;;;1.88;1.10;;;7.30;83.40;;;;;;4957399;28;20019;-80
2023/12/14 12:31:02;;;;;;;0.68;0.55;;;7.20;84.10;;;;;;4957959;28;20023;-78
2023/12/14 12:33:28;;;;;;;1.73;0.68;;;7.20;83.70;;;;;;4958335;28;20031;-79
2023/12/14 12:35:54;;;;;;;1.73;0.80;;;7.10;84.30;;;;;;4975309;28;20118;-78
2023/12/14 12:38:20;;;;;;;2.85;0.70;;;7.10;85.60;;;;;;4958572;28;20423;-79
2023/12/14 12:40:45;;;;;;;1.55;0.40;;;7.00;84.30;;;;;;4957881;28;20027;-80
2023/12/14 12:43:12;;;;;;;1.10;0.80;;;6.90;84.30;;;;;;4957162;28;20031;-80
2023/12/14 12:45:38;;;;;;;1.98;0.77;;;6.90;83.40;;;;;;4957465;28;20023;-78
2023/12/14 12:48:06;;;;;;;1.95;0.70;;;7.00;82.50;;;;;;4957578;28;20496;-77
2023/12/14 12:50:32;;;;;;;1.00;0.90;;;7.10;83.20;;;;;;4957907;28;20398;-80
2023/12/14 12:52:58;;;;;;;2.88;1.00;;;7.20;82.30;;;;;;4974876;28;20051;-77
2023/12/14 12:55:23;;;;;;;4.03;1.67;;;7.30;81.50;;;;;;4957996;28;20023;-79
2023/12/14 12:57:49;;;;;;;5.68;3.13;;;7.70;80.70;;;;;;4975721;28;20026;-77